createdAt,value
2023-03-11T00:00:09.528Z,0.00
2023-03-11T00:01:00.263Z,0.00
2023-03-11T00:01:51.059Z,0.00
2023-03-11T00:02:41.813Z,0.00
2023-03-11T00:03:32.592Z,0.00
2023-03-11T00:04:23.341Z,0.00
2023-03-11T00:05:14.172Z,0.00
2023-03-11T00:06:04.921Z,0.00
2023-03-11T00:06:55.715Z,0.00
2023-03-11T00:07:46.460Z,0.00
2023-03-11T00:08:37.240Z,0.00
2023-03-11T00:09:28.007Z,0.00
2023-03-11T00:10:18.762Z,0.00
2023-03-11T00:11:09.513Z,0.00
2023-03-11T00:12:00.276Z,0.00
2023-03-11T00:12:51.054Z,0.00
2023-03-11T00:13:41.863Z,0.00
2023-03-11T00:14:32.590Z,0.00
2023-03-11T00:15:23.384Z,0.00
2023-03-11T00:16:14.170Z,0.00
2023-03-11T00:17:04.892Z,0.00
2023-03-11T00:17:55.683Z,0.00
2023-03-11T00:18:46.443Z,0.00
2023-03-11T00:19:37.195Z,0.00
2023-03-11T00:20:27.960Z,0.00
2023-03-11T00:21:18.741Z,0.00
2023-03-11T00:22:09.520Z,0.00
2023-03-11T00:23:00.275Z,0.00
2023-03-11T00:23:51.043Z,0.00
2023-03-11T00:24:41.821Z,0.00
2023-03-11T00:25:32.609Z,0.00
2023-03-11T00:26:23.415Z,0.00
2023-03-11T00:27:14.138Z,0.00
2023-03-11T00:28:04.926Z,0.00
2023-03-11T00:28:55.700Z,0.00
2023-03-11T00:29:46.463Z,0.00
2023-03-11T00:30:37.309Z,0.00
2023-03-11T00:31:28.031Z,0.00
2023-03-11T00:32:18.839Z,0.00
2023-03-11T00:33:09.546Z,0.00
2023-03-11T00:34:00.317Z,0.00
2023-03-11T00:34:51.091Z,0.00
2023-03-11T00:35:41.912Z,0.00
2023-03-11T00:36:32.649Z,0.00
2023-03-11T00:37:23.413Z,0.00
2023-03-11T00:38:14.155Z,0.00
2023-03-11T00:39:04.931Z,0.00
2023-03-11T00:39:55.729Z,0.00
2023-03-11T00:40:46.503Z,0.00
2023-03-11T00:41:37.276Z,0.00
2023-03-11T00:42:28.053Z,0.00
2023-03-11T00:43:18.822Z,0.00
2023-03-11T00:44:09.608Z,0.00
2023-03-11T00:45:00.338Z,0.00
2023-03-11T00:45:51.156Z,0.00
2023-03-11T00:46:41.871Z,0.00
2023-03-11T00:47:32.634Z,0.00
2023-03-11T00:48:23.411Z,0.00
2023-03-11T00:49:14.166Z,0.00
2023-03-11T00:50:04.935Z,0.00
2023-03-11T00:50:55.695Z,0.00
2023-03-11T00:51:46.460Z,0.00
2023-03-11T00:52:37.254Z,0.00
2023-03-11T00:53:27.993Z,0.00
2023-03-11T00:54:18.732Z,0.00
2023-03-11T00:55:09.512Z,0.00
2023-03-11T00:56:00.268Z,0.00
2023-03-11T00:56:51.042Z,0.00
2023-03-11T00:57:41.812Z,0.00
2023-03-11T00:58:32.586Z,0.00
2023-03-11T00:59:23.382Z,0.00
2023-03-11T01:00:14.135Z,0.00
2023-03-11T01:01:04.973Z,0.00
2023-03-11T01:01:55.670Z,0.00
2023-03-11T01:02:46.429Z,0.00
2023-03-11T01:03:37.185Z,0.00
2023-03-11T01:04:27.985Z,0.00
2023-03-11T01:05:18.710Z,0.00
2023-03-11T01:06:09.488Z,0.00
2023-03-11T01:07:00.237Z,0.00
2023-03-11T01:07:51.020Z,0.00
2023-03-11T01:08:41.770Z,0.00
2023-03-11T01:09:32.548Z,0.00
2023-03-11T01:10:23.305Z,0.00
2023-03-11T01:11:14.056Z,0.00
2023-03-11T01:12:04.822Z,0.00
2023-03-11T01:12:55.589Z,0.00
2023-03-11T01:13:46.356Z,0.00
2023-03-11T01:14:37.085Z,0.00
2023-03-11T01:15:27.854Z,0.00
2023-03-11T01:16:18.654Z,0.00
2023-03-11T01:17:09.419Z,0.00
2023-03-11T01:18:00.154Z,0.00
2023-03-11T01:18:50.897Z,0.00
2023-03-11T01:19:41.672Z,0.00
2023-03-11T01:20:32.458Z,0.00
2023-03-11T01:21:23.208Z,0.00
2023-03-11T01:22:13.970Z,0.00
2023-03-11T01:23:04.751Z,0.00
2023-03-11T01:23:55.491Z,0.00
2023-03-11T01:24:46.269Z,0.00
2023-03-11T01:25:37.039Z,0.00
2023-03-11T01:26:27.782Z,0.00
2023-03-11T01:27:18.546Z,0.00
2023-03-11T01:28:09.314Z,0.00
2023-03-11T01:29:00.100Z,0.00
2023-03-11T01:29:50.855Z,0.00
2023-03-11T01:30:41.706Z,0.00
2023-03-11T01:31:32.424Z,0.00
2023-03-11T01:32:23.235Z,0.00
2023-03-11T01:33:13.952Z,0.00
2023-03-11T01:34:04.733Z,0.00
2023-03-11T01:34:55.490Z,0.00
2023-03-11T01:35:46.379Z,0.00
2023-03-11T01:36:37.083Z,0.00
2023-03-11T01:37:27.854Z,0.00
2023-03-11T01:38:18.645Z,0.00
2023-03-11T01:39:09.385Z,0.00
2023-03-11T01:40:00.156Z,0.00
2023-03-11T01:40:50.926Z,0.00
2023-03-11T01:41:41.733Z,0.00
2023-03-11T01:42:32.494Z,0.00
2023-03-11T01:43:23.259Z,0.00
2023-03-11T01:44:14.022Z,0.00
2023-03-11T01:45:04.801Z,0.00
2023-03-11T01:45:55.554Z,0.00
2023-03-11T01:46:46.367Z,0.00
2023-03-11T01:47:37.095Z,0.00
2023-03-11T01:48:27.861Z,0.00
2023-03-11T01:49:18.631Z,0.00
2023-03-11T01:50:09.405Z,0.00
2023-03-11T01:51:00.123Z,0.00
2023-03-11T01:51:50.894Z,0.00
2023-03-11T01:52:41.791Z,0.00
2023-03-11T01:53:32.587Z,0.00
2023-03-11T01:54:23.344Z,0.00
2023-03-11T01:55:14.107Z,0.00
2023-03-11T01:56:04.915Z,0.00
2023-03-11T01:56:55.668Z,0.00
2023-03-11T01:57:46.428Z,0.00
2023-03-11T01:58:37.205Z,0.00
2023-03-11T01:59:27.976Z,0.00
2023-03-11T02:00:18.734Z,0.00
2023-03-11T02:01:09.520Z,0.00
2023-03-11T02:02:00.377Z,0.00
2023-03-11T02:02:51.119Z,0.00
2023-03-11T02:03:41.850Z,0.00
2023-03-11T02:04:32.635Z,0.00
2023-03-11T02:05:23.405Z,0.00
2023-03-11T02:06:14.153Z,0.00
2023-03-11T02:07:04.939Z,0.00
2023-03-11T02:07:55.702Z,0.00
2023-03-11T02:08:46.501Z,0.00
2023-03-11T02:09:37.300Z,0.00
2023-03-11T02:10:28.094Z,0.00
2023-03-11T02:11:18.860Z,0.00
2023-03-11T02:12:09.659Z,0.00
2023-03-11T02:13:00.383Z,0.00
2023-03-11T02:13:51.160Z,0.00
2023-03-11T02:14:41.931Z,0.00
2023-03-11T02:15:32.710Z,0.00
2023-03-11T02:16:23.556Z,0.00
2023-03-11T02:17:14.318Z,0.00
2023-03-11T02:18:05.124Z,0.00
2023-03-11T02:18:55.864Z,0.00
2023-03-11T02:19:46.619Z,0.00
2023-03-11T02:20:37.383Z,0.00
2023-03-11T02:21:28.157Z,0.00
2023-03-11T02:22:18.914Z,0.00
2023-03-11T02:23:09.689Z,0.00
2023-03-11T02:24:00.472Z,0.00
2023-03-11T02:24:51.225Z,0.00
2023-03-11T02:25:41.992Z,0.00
2023-03-11T02:26:32.731Z,0.00
2023-03-11T02:27:23.512Z,0.00
2023-03-11T02:28:14.276Z,0.00
2023-03-11T02:29:05.038Z,0.00
2023-03-11T02:29:55.823Z,0.00
2023-03-11T02:30:46.611Z,0.00
2023-03-11T02:31:37.409Z,0.00
2023-03-11T02:32:28.218Z,0.00
2023-03-11T02:33:18.930Z,0.00
2023-03-11T02:34:09.711Z,0.00
2023-03-11T02:35:00.503Z,0.00
2023-03-11T02:35:51.294Z,0.00
2023-03-11T02:36:42.054Z,0.00
2023-03-11T02:37:32.808Z,0.00
2023-03-11T02:38:23.578Z,0.00
2023-03-11T02:39:14.374Z,0.00
2023-03-11T02:40:05.119Z,0.00
2023-03-11T02:40:55.879Z,0.00
2023-03-11T02:41:46.639Z,0.00
2023-03-11T02:42:37.429Z,0.00
2023-03-11T02:43:28.200Z,0.00
2023-03-11T02:44:18.986Z,0.00
2023-03-11T02:45:09.760Z,0.00
2023-03-11T02:46:00.524Z,0.00
2023-03-11T02:46:51.311Z,0.00
2023-03-11T02:47:42.071Z,0.00
2023-03-11T02:48:32.821Z,0.00
2023-03-11T02:49:23.588Z,0.00
2023-03-11T02:50:14.382Z,0.00
2023-03-11T02:51:05.145Z,0.00
2023-03-11T02:51:55.915Z,0.00
2023-03-11T02:52:46.687Z,0.00
2023-03-11T02:53:37.448Z,0.00
2023-03-11T02:54:28.229Z,0.00
2023-03-11T02:55:18.967Z,0.00
2023-03-11T02:56:09.741Z,0.00
2023-03-11T02:57:00.497Z,0.00
2023-03-11T02:57:51.295Z,0.00
2023-03-11T02:58:42.028Z,0.00
2023-03-11T02:59:32.811Z,0.00
2023-03-11T03:00:23.599Z,0.00
2023-03-11T03:01:14.433Z,0.00
2023-03-11T03:02:05.160Z,0.00
2023-03-11T03:02:55.937Z,0.00
2023-03-11T03:03:46.737Z,0.00
2023-03-11T03:04:37.539Z,0.00
2023-03-11T03:05:28.287Z,0.00
2023-03-11T03:06:19.048Z,0.00
2023-03-11T03:07:09.843Z,0.00
2023-03-11T03:08:00.574Z,0.00
2023-03-11T03:08:51.355Z,0.00
2023-03-11T03:09:42.123Z,0.00
2023-03-11T03:10:32.920Z,0.00
2023-03-11T03:11:23.665Z,0.00
2023-03-11T03:12:14.409Z,0.00
2023-03-11T03:13:05.166Z,0.00
2023-03-11T03:13:55.943Z,0.00
2023-03-11T03:14:46.700Z,0.00
2023-03-11T03:15:37.471Z,0.00
2023-03-11T03:16:28.274Z,0.00
2023-03-11T03:17:19.085Z,0.00
2023-03-11T03:18:09.814Z,0.00
2023-03-11T03:19:00.635Z,0.00
2023-03-11T03:19:51.378Z,0.00
2023-03-11T03:20:42.126Z,0.00
2023-03-11T03:21:32.895Z,0.00
2023-03-11T03:22:23.668Z,0.00
2023-03-11T03:23:14.464Z,0.00
2023-03-11T03:24:05.219Z,0.00
2023-03-11T03:24:56.002Z,0.00
2023-03-11T03:25:46.757Z,0.00
2023-03-11T03:26:37.524Z,0.00
2023-03-11T03:27:28.211Z,0.00
2023-03-11T03:28:18.977Z,0.00
2023-03-11T03:29:09.746Z,0.00
2023-03-11T03:30:00.504Z,0.00
2023-03-11T03:30:51.259Z,0.00
2023-03-11T03:31:42.076Z,0.00
2023-03-11T03:32:32.868Z,0.00
2023-03-11T03:33:23.578Z,0.00
2023-03-11T03:34:14.381Z,0.00
2023-03-11T03:35:05.125Z,0.00
2023-03-11T03:35:55.924Z,0.00
2023-03-11T03:36:46.649Z,0.00
2023-03-11T03:37:37.411Z,0.00
2023-03-11T03:38:28.185Z,0.00
2023-03-11T03:39:18.975Z,0.00
2023-03-11T03:40:09.736Z,0.00
2023-03-11T03:41:00.469Z,0.00
2023-03-11T03:41:51.242Z,0.00
2023-03-11T03:42:42.006Z,0.00
2023-03-11T03:43:32.775Z,0.00
2023-03-11T03:44:23.552Z,0.00
2023-03-11T03:45:14.357Z,0.00
2023-03-11T03:46:05.203Z,0.00
2023-03-11T03:46:55.924Z,0.00
2023-03-11T03:47:46.683Z,0.00
2023-03-11T03:48:37.455Z,0.00
2023-03-11T03:49:28.191Z,0.00
2023-03-11T03:50:18.962Z,0.00
2023-03-11T03:51:09.964Z,0.00
2023-03-11T03:52:00.736Z,0.00
2023-03-11T03:52:51.461Z,0.00
2023-03-11T03:53:42.174Z,0.00
2023-03-11T03:54:32.924Z,0.00
2023-03-11T03:55:23.722Z,0.00
2023-03-11T03:56:14.469Z,0.00
2023-03-11T03:57:05.217Z,0.00
2023-03-11T03:57:55.977Z,0.00
2023-03-11T03:58:46.756Z,0.00
2023-03-11T03:59:37.551Z,0.00
2023-03-11T04:00:28.291Z,0.00
2023-03-11T04:01:19.071Z,0.00
2023-03-11T04:02:09.903Z,0.00
2023-03-11T04:03:00.654Z,0.00
2023-03-11T04:03:51.332Z,0.00
2023-03-11T04:04:42.103Z,0.00
2023-03-11T04:05:32.870Z,0.00
2023-03-11T04:06:23.611Z,0.00
2023-03-11T04:07:14.286Z,0.00
2023-03-11T04:08:05.598Z,0.00
2023-03-11T04:08:56.315Z,0.00
2023-03-11T04:09:47.107Z,0.00
2023-03-11T04:10:37.821Z,0.00
2023-03-11T04:11:28.553Z,0.00
2023-03-11T04:12:19.259Z,0.00
2023-03-11T04:13:10.054Z,0.00
2023-03-11T04:14:00.831Z,0.00
2023-03-11T04:14:51.628Z,0.00
2023-03-11T04:15:42.388Z,0.00
2023-03-11T04:16:33.238Z,0.00
2023-03-11T04:17:23.896Z,0.00
2023-03-11T04:18:14.665Z,0.00
2023-03-11T04:19:05.458Z,0.00
2023-03-11T04:19:56.167Z,0.00
2023-03-11T04:20:46.955Z,0.00
2023-03-11T04:21:37.734Z,0.00
2023-03-11T04:22:28.505Z,0.00
2023-03-11T04:23:19.285Z,0.00
2023-03-11T04:24:10.049Z,0.00
2023-03-11T04:25:00.840Z,0.00
2023-03-11T04:25:51.626Z,0.00
2023-03-11T04:26:42.383Z,0.00
2023-03-11T04:27:33.079Z,0.00
2023-03-11T04:28:23.758Z,0.00
2023-03-11T04:29:14.504Z,0.00
2023-03-11T04:30:05.747Z,0.00
2023-03-11T04:30:57.044Z,0.00
2023-03-11T04:31:47.902Z,0.00
2023-03-11T04:32:39.031Z,0.00
2023-03-11T04:33:30.072Z,0.00
2023-03-11T04:34:20.855Z,0.00
2023-03-11T04:35:11.645Z,0.00
2023-03-11T04:36:02.424Z,0.00
2023-03-11T04:36:53.174Z,0.00
2023-03-11T04:37:43.989Z,0.00
2023-03-11T04:38:34.776Z,0.00
2023-03-11T04:39:25.548Z,0.00
2023-03-11T04:40:16.343Z,0.00
2023-03-11T04:41:07.124Z,0.00
2023-03-11T04:41:57.857Z,0.00
2023-03-11T04:42:48.634Z,0.00
2023-03-11T04:43:39.392Z,0.00
2023-03-11T04:44:30.150Z,0.00
2023-03-11T04:45:20.877Z,0.00
2023-03-11T04:46:11.674Z,0.00
2023-03-11T04:47:02.411Z,0.00
2023-03-11T04:47:53.198Z,0.00
2023-03-11T04:48:43.957Z,0.00
2023-03-11T04:49:34.728Z,0.00
2023-03-11T04:50:25.484Z,0.00
2023-03-11T04:51:16.208Z,0.00
2023-03-11T04:52:06.947Z,0.00
2023-03-11T04:52:57.720Z,0.00
2023-03-11T04:53:48.470Z,0.00
2023-03-11T04:54:39.735Z,0.00
2023-03-11T04:55:30.481Z,0.00
2023-03-11T04:56:21.282Z,0.00
2023-03-11T04:57:12.044Z,0.00
2023-03-11T04:58:02.793Z,0.00
2023-03-11T04:58:53.643Z,0.00
2023-03-11T04:59:44.414Z,0.00
2023-03-11T05:00:35.166Z,0.00
2023-03-11T05:01:26.024Z,0.00
2023-03-11T05:02:16.744Z,0.00
2023-03-11T05:03:07.541Z,0.00
2023-03-11T05:03:58.277Z,0.00
2023-03-11T05:04:49.130Z,0.00
2023-03-11T05:05:39.857Z,0.00
2023-03-11T05:06:30.616Z,0.00
2023-03-11T05:07:21.374Z,0.00
2023-03-11T05:08:12.167Z,0.00
2023-03-11T05:09:02.925Z,0.00
2023-03-11T05:09:53.679Z,0.00
2023-03-11T05:10:44.463Z,0.00
2023-03-11T05:11:35.356Z,1.00
2023-03-11T05:12:26.189Z,1.00
2023-03-11T05:13:17.062Z,1.00
2023-03-11T05:14:07.925Z,1.00
2023-03-11T05:14:58.782Z,1.00
2023-03-11T05:15:49.688Z,1.00
2023-03-11T05:16:40.537Z,1.00
2023-03-11T05:17:31.539Z,0.00
2023-03-11T05:18:22.357Z,0.00
2023-03-11T05:19:13.139Z,0.00
2023-03-11T05:20:04.867Z,2.00
2023-03-11T05:20:55.341Z,0.00
2023-03-11T05:21:46.210Z,1.00
2023-03-11T05:22:37.512Z,0.00
2023-03-11T05:23:28.333Z,0.00
2023-03-11T05:24:19.071Z,6.00
2023-03-11T05:25:09.938Z,3.00
2023-03-11T05:26:00.825Z,3.00
2023-03-11T05:26:51.702Z,2.00
2023-03-11T05:27:42.593Z,1.00
2023-03-11T05:28:33.403Z,3.00
2023-03-11T05:29:24.282Z,7.00
2023-03-11T05:30:15.155Z,10.00
2023-03-11T05:31:06.081Z,10.00
2023-03-11T05:31:56.928Z,10.00
2023-03-11T05:32:47.893Z,11.00
2023-03-11T05:33:38.689Z,15.00
2023-03-11T05:34:29.594Z,14.00
2023-03-11T05:35:20.567Z,17.00
2023-03-11T05:36:11.407Z,17.00
2023-03-11T05:37:03.323Z,18.00
2023-03-11T05:37:52.990Z,21.00
2023-03-11T05:38:43.876Z,18.00
2023-03-11T05:39:34.793Z,20.00
2023-03-11T05:40:25.662Z,22.00
2023-03-11T05:41:16.564Z,31.00
2023-03-11T05:42:07.457Z,32.00
2023-03-11T05:42:58.317Z,36.00
2023-03-11T05:43:49.199Z,40.00
2023-03-11T05:44:40.073Z,41.00
2023-03-11T05:45:30.956Z,43.00
2023-03-11T05:46:21.910Z,50.00
2023-03-11T05:47:12.985Z,50.00
2023-03-11T05:48:03.883Z,58.00
2023-03-11T05:48:54.740Z,62.00
2023-03-11T05:49:45.616Z,67.00
2023-03-11T05:50:36.517Z,71.00
2023-03-11T05:51:27.428Z,73.00
2023-03-11T05:52:18.318Z,79.00
2023-03-11T05:53:09.206Z,84.00
2023-03-11T05:54:00.127Z,90.00
2023-03-11T05:54:50.992Z,97.00
2023-03-11T05:55:41.878Z,101.00
2023-03-11T05:56:32.768Z,111.00
2023-03-11T05:57:23.702Z,108.00
2023-03-11T05:58:14.625Z,119.00
2023-03-11T05:59:05.484Z,127.00
2023-03-11T05:59:56.365Z,131.00
2023-03-11T06:00:47.257Z,138.00
2023-03-11T06:01:38.166Z,141.00
2023-03-11T06:02:29.064Z,149.00
2023-03-11T06:03:19.957Z,150.00
2023-03-11T06:04:11.019Z,158.00
2023-03-11T06:05:02.088Z,170.00
2023-03-11T06:05:53.090Z,171.00
2023-03-11T06:06:43.972Z,176.00
2023-03-11T06:07:34.876Z,185.00
2023-03-11T06:08:25.785Z,192.00
2023-03-11T06:09:16.722Z,199.00
2023-03-11T06:10:07.619Z,207.00
2023-03-11T06:10:58.543Z,215.00
2023-03-11T06:11:49.446Z,226.00
2023-03-11T06:12:40.376Z,229.00
2023-03-11T06:13:31.268Z,237.00
2023-03-11T06:14:22.162Z,251.00
2023-03-11T06:15:13.069Z,245.00
2023-03-11T06:16:04.042Z,259.00
2023-03-11T06:16:54.918Z,270.00
2023-03-11T06:17:45.813Z,283.00
2023-03-11T06:18:36.738Z,289.00
2023-03-11T06:19:27.621Z,296.00
2023-03-11T06:20:18.544Z,310.00
2023-03-11T06:21:09.451Z,317.00
2023-03-11T06:22:00.352Z,327.00
2023-03-11T06:22:51.260Z,333.00
2023-03-11T06:23:42.167Z,340.00
2023-03-11T06:24:33.078Z,350.00
2023-03-11T06:25:23.994Z,361.00
2023-03-11T06:26:14.925Z,373.00
2023-03-11T06:27:05.872Z,384.00
2023-03-11T06:27:56.786Z,387.00
2023-03-11T06:28:47.664Z,396.00
2023-03-11T06:29:38.615Z,309.00
2023-03-11T06:30:29.542Z,306.00
2023-03-11T06:31:20.516Z,311.00
2023-03-11T06:32:11.437Z,317.00
2023-03-11T06:33:02.312Z,325.00
2023-03-11T06:33:53.217Z,334.00
2023-03-11T06:34:44.149Z,343.00
2023-03-11T06:35:35.114Z,95.00
2023-03-11T06:36:25.995Z,365.00
2023-03-11T06:37:16.903Z,381.00
2023-03-11T06:38:07.808Z,381.00
2023-03-11T06:38:58.708Z,395.00
2023-03-11T06:39:49.641Z,402.00
2023-03-11T06:40:40.598Z,407.00
2023-03-11T06:41:31.516Z,422.00
2023-03-11T06:42:22.420Z,433.00
2023-03-11T06:43:13.343Z,437.00
2023-03-11T06:44:04.237Z,448.00
2023-03-11T06:44:55.145Z,462.00
2023-03-11T06:45:46.109Z,455.00
2023-03-11T06:46:36.993Z,475.00
2023-03-11T06:47:27.886Z,480.00
2023-03-11T06:48:18.815Z,490.00
2023-03-11T06:49:09.708Z,500.00
2023-03-11T06:50:00.680Z,508.00
2023-03-11T06:50:51.561Z,520.00
2023-03-11T06:51:42.468Z,522.00
2023-03-11T06:52:33.375Z,531.00
2023-03-11T06:53:24.273Z,543.00
2023-03-11T06:54:15.189Z,550.00
2023-03-11T06:55:06.110Z,556.00
2023-03-11T06:55:57.024Z,567.00
2023-03-11T06:56:48.002Z,573.00
2023-03-11T06:57:38.857Z,579.00
2023-03-11T06:58:29.787Z,592.00
2023-03-11T06:59:20.685Z,604.00
2023-03-11T07:00:11.611Z,609.00
2023-03-11T07:01:02.553Z,619.00
2023-03-11T07:01:53.422Z,621.00
2023-03-11T07:02:44.351Z,628.00
2023-03-11T07:03:35.269Z,636.00
2023-03-11T07:04:26.191Z,641.00
2023-03-11T07:05:17.119Z,652.00
2023-03-11T07:06:08.062Z,655.00
2023-03-11T07:06:58.964Z,272.00
2023-03-11T07:07:49.870Z,312.00
2023-03-11T07:08:40.790Z,451.00
2023-03-11T07:09:31.706Z,432.00
2023-03-11T07:10:23.178Z,497.00
2023-03-11T07:11:13.532Z,596.00
2023-03-11T07:12:06.622Z,598.00
2023-03-11T07:12:55.158Z,423.00
2023-03-11T07:13:46.087Z,721.00
2023-03-11T07:14:36.977Z,727.00
2023-03-11T07:15:27.887Z,743.00
2023-03-11T07:16:19.394Z,734.00
2023-03-11T07:17:09.852Z,756.00
2023-03-11T07:18:00.750Z,758.00
2023-03-11T07:18:51.678Z,757.00
2023-03-11T07:19:42.603Z,762.00
2023-03-11T07:20:33.496Z,770.00
2023-03-11T07:21:24.429Z,763.00
2023-03-11T07:22:15.547Z,784.00
2023-03-11T07:23:06.400Z,779.00
2023-03-11T07:23:57.310Z,793.00
2023-03-11T07:24:48.248Z,800.00
2023-03-11T07:25:39.167Z,811.00
2023-03-11T07:26:30.075Z,816.00
2023-03-11T07:27:21.008Z,810.00
2023-03-11T07:28:11.907Z,807.00
2023-03-11T07:29:02.834Z,815.00
2023-03-11T07:29:53.740Z,856.00
2023-03-11T07:30:44.640Z,918.00
2023-03-11T07:31:35.638Z,816.00
2023-03-11T07:32:26.522Z,838.00
2023-03-11T07:33:17.374Z,900.00
2023-03-11T07:34:08.288Z,867.00
2023-03-11T07:34:59.208Z,846.00
2023-03-11T07:35:50.140Z,843.00
2023-03-11T07:36:41.038Z,859.00
2023-03-11T07:37:31.925Z,877.00
2023-03-11T07:38:22.913Z,953.00
2023-03-11T07:39:13.775Z,927.00
2023-03-11T07:40:04.670Z,935.00
2023-03-11T07:40:55.591Z,890.00
2023-03-11T07:41:46.535Z,898.00
2023-03-11T07:42:37.450Z,896.00
2023-03-11T07:43:28.343Z,904.00
2023-03-11T07:44:19.289Z,898.00
2023-03-11T07:45:10.175Z,871.00
2023-03-11T07:46:01.142Z,894.00
2023-03-11T07:46:52.014Z,877.00
2023-03-11T07:47:42.932Z,867.00
2023-03-11T07:48:33.832Z,902.00
2023-03-11T07:49:24.738Z,943.00
2023-03-11T07:50:15.653Z,980.00
2023-03-11T07:51:06.566Z,971.00
2023-03-11T07:51:57.473Z,965.00
2023-03-11T07:52:48.376Z,949.00
2023-03-11T07:53:39.288Z,953.00
2023-03-11T07:54:30.189Z,943.00
2023-03-11T07:55:21.090Z,901.00
2023-03-11T07:56:12.024Z,913.00
2023-03-11T07:57:02.946Z,925.00
2023-03-11T07:57:53.861Z,978.00
2023-03-11T07:58:45.922Z,993.00
2023-03-11T07:59:35.679Z,944.00
2023-03-11T08:00:26.564Z,997.00
2023-03-11T08:01:17.478Z,977.00
2023-03-11T08:02:08.453Z,931.00
2023-03-11T08:02:59.334Z,932.00
2023-03-11T08:03:50.297Z,937.00
2023-03-11T08:04:41.153Z,903.00
2023-03-11T08:05:32.060Z,937.00
2023-03-11T08:06:22.977Z,935.00
2023-03-11T08:07:13.893Z,951.00
2023-03-11T08:08:04.795Z,962.00
2023-03-11T08:08:55.733Z,966.00
2023-03-11T08:09:46.693Z,970.00
2023-03-11T08:10:37.598Z,954.00
2023-03-11T08:11:28.715Z,942.00
2023-03-11T08:12:19.569Z,192.00
2023-03-11T08:13:10.484Z,731.00
2023-03-11T08:14:01.402Z,729.00
2023-03-11T08:14:52.326Z,733.00
2023-03-11T08:15:43.240Z,741.00
2023-03-11T08:16:34.148Z,788.00
2023-03-11T08:17:25.061Z,945.00
2023-03-11T08:18:17.007Z,524.00
2023-03-11T08:19:06.881Z,964.00
2023-03-11T08:19:57.801Z,971.00
2023-03-11T08:20:48.732Z,952.00
2023-03-11T08:21:39.655Z,957.00
2023-03-11T08:22:30.565Z,973.00
2023-03-11T08:23:21.492Z,992.00
2023-03-11T08:24:12.397Z,1004.00
2023-03-11T08:25:03.341Z,1003.00
2023-03-11T08:25:54.273Z,985.00
2023-03-11T08:26:45.197Z,968.00
2023-03-11T08:27:36.121Z,983.00
2023-03-11T08:28:27.019Z,998.00
2023-03-11T08:29:17.954Z,999.00
2023-03-11T08:30:08.905Z,1018.00
2023-03-11T08:30:59.905Z,1012.00
2023-03-11T08:31:50.795Z,1028.00
2023-03-11T08:32:41.919Z,1024.00
2023-03-11T08:33:32.832Z,1038.00
2023-03-11T08:34:23.827Z,1058.00
2023-03-11T08:35:14.848Z,1044.00
2023-03-11T08:36:05.882Z,1051.00
2023-03-11T08:36:56.916Z,1027.00
2023-03-11T08:37:47.859Z,1033.00
2023-03-11T08:38:38.879Z,1021.00
2023-03-11T08:39:29.762Z,1013.00
2023-03-11T08:40:20.683Z,968.00
2023-03-11T08:41:11.600Z,955.00
2023-03-11T08:42:02.507Z,958.00
2023-03-11T08:42:53.413Z,978.00
2023-03-11T08:43:44.338Z,1086.00
2023-03-11T08:44:35.384Z,4336.00
2023-03-11T08:45:26.386Z,26102.00
2023-03-11T08:46:17.372Z,76952.00
2023-03-11T08:47:08.301Z,77949.00
2023-03-11T08:47:59.294Z,75632.00
2023-03-11T08:48:50.235Z,74229.00
2023-03-11T08:49:41.198Z,76188.00
2023-03-11T08:50:36.590Z,78555.00
2023-03-11T08:51:24.161Z,80723.00
2023-03-11T08:52:13.868Z,81012.00
2023-03-11T08:53:04.841Z,81563.00
2023-03-11T08:53:55.826Z,81313.00
2023-03-11T08:54:46.771Z,81405.00
2023-03-11T08:55:37.725Z,80653.00
2023-03-11T08:56:28.727Z,81161.00
2023-03-11T08:57:19.694Z,80509.00
2023-03-11T08:58:10.695Z,79643.00
2023-03-11T08:59:01.678Z,77515.00
2023-03-11T08:59:52.641Z,75806.00
2023-03-11T09:00:43.613Z,77523.00
2023-03-11T09:01:34.554Z,77253.00
2023-03-11T09:02:25.626Z,75902.00
2023-03-11T09:03:16.546Z,76944.00
2023-03-11T09:04:07.507Z,77910.00
2023-03-11T09:04:58.490Z,78074.00
2023-03-11T09:05:49.443Z,76543.00
2023-03-11T09:06:40.396Z,75581.00
2023-03-11T09:07:31.363Z,76958.00
2023-03-11T09:08:22.331Z,79614.00
2023-03-11T09:09:13.311Z,80328.00
2023-03-11T09:10:04.259Z,80051.00
2023-03-11T09:10:55.306Z,79605.00
2023-03-11T09:11:46.206Z,79440.00
2023-03-11T09:12:37.156Z,80358.00
2023-03-11T09:13:28.118Z,79001.00
2023-03-11T09:14:19.095Z,77081.00
2023-03-11T09:15:10.040Z,77574.00
2023-03-11T09:16:01.151Z,80975.00
2023-03-11T09:16:52.053Z,80885.00
2023-03-11T09:17:43.011Z,78456.00
2023-03-11T09:18:33.997Z,80710.00
2023-03-11T09:19:24.952Z,81316.00
2023-03-11T09:20:15.920Z,80723.00
2023-03-11T09:21:06.910Z,80172.00
2023-03-11T09:21:57.872Z,80750.00
2023-03-11T09:22:48.837Z,80528.00
2023-03-11T09:23:41.638Z,79840.00
2023-03-11T09:24:30.788Z,78209.00
2023-03-11T09:25:21.761Z,81862.00
2023-03-11T09:26:12.731Z,79672.00
2023-03-11T09:27:03.679Z,80714.00
2023-03-11T09:27:54.645Z,80426.00
2023-03-11T09:28:45.603Z,77771.00
2023-03-11T09:29:36.578Z,76758.00
2023-03-11T09:30:27.532Z,77185.00
2023-03-11T09:31:18.647Z,77227.00
2023-03-11T09:32:09.582Z,75811.00
2023-03-11T09:33:00.547Z,23367.00
2023-03-11T09:33:51.523Z,24905.00
2023-03-11T09:34:42.496Z,31720.00
2023-03-11T09:35:33.509Z,21655.00
2023-03-11T09:36:24.436Z,9778.00
2023-03-11T09:37:15.365Z,6670.00
2023-03-11T09:38:06.303Z,2297.00
2023-03-11T09:38:57.257Z,2107.00
2023-03-11T09:39:48.147Z,2061.00
2023-03-11T09:40:39.096Z,2049.00
2023-03-11T09:41:30.045Z,1968.00
2023-03-11T09:42:20.964Z,1736.00
2023-03-11T09:43:11.895Z,1674.00
2023-03-11T09:44:02.840Z,1726.00
2023-03-11T09:44:53.775Z,1679.00
2023-03-11T09:45:44.708Z,1660.00
2023-03-11T09:46:35.711Z,1701.00
2023-03-11T09:47:26.589Z,1715.00
2023-03-11T09:48:17.639Z,1646.00
2023-03-11T09:49:08.581Z,1745.00
2023-03-11T09:49:59.494Z,1759.00
2023-03-11T09:50:50.422Z,1713.00
2023-03-11T09:51:41.366Z,1662.00
2023-03-11T09:52:32.305Z,2160.00
2023-03-11T09:53:23.252Z,2150.00
2023-03-11T09:54:14.292Z,2139.00
2023-03-11T09:55:05.240Z,2146.00
2023-03-11T09:55:56.225Z,2140.00
2023-03-11T09:56:47.147Z,2139.00
2023-03-11T09:57:38.077Z,2153.00
2023-03-11T09:58:29.019Z,2157.00
2023-03-11T09:59:19.949Z,2171.00
2023-03-11T10:00:10.906Z,2177.00
2023-03-11T10:01:01.830Z,2186.00
2023-03-11T10:01:52.810Z,2187.00
2023-03-11T10:02:43.821Z,2192.00
2023-03-11T10:03:34.823Z,2208.00
2023-03-11T10:04:25.773Z,2214.00
2023-03-11T10:05:16.723Z,2208.00
2023-03-11T10:06:07.665Z,2213.00
2023-03-11T10:06:58.603Z,2273.00
2023-03-11T10:07:49.534Z,2959.00
2023-03-11T10:08:40.465Z,3137.00
2023-03-11T10:09:31.464Z,2659.00
2023-03-11T10:10:22.462Z,2578.00
2023-03-11T10:11:13.359Z,2550.00
2023-03-11T10:12:04.304Z,2566.00
2023-03-11T10:12:55.232Z,2585.00
2023-03-11T10:13:46.172Z,2606.00
2023-03-11T10:14:37.096Z,2627.00
2023-03-11T10:15:28.046Z,2631.00
2023-03-11T10:16:19.010Z,2645.00
2023-03-11T10:17:09.936Z,2641.00
2023-03-11T10:18:00.882Z,2590.00
2023-03-11T10:18:51.793Z,2586.00
2023-03-11T10:19:42.715Z,2591.00
2023-03-11T10:20:33.664Z,2592.00
2023-03-11T10:21:25.715Z,2596.00
2023-03-11T10:22:15.458Z,2586.00
2023-03-11T10:23:06.389Z,2583.00
2023-03-11T10:23:57.324Z,2577.00
2023-03-11T10:24:48.266Z,2573.00
2023-03-11T10:25:39.190Z,2570.00
2023-03-11T10:26:30.116Z,2575.00
2023-03-11T10:27:21.083Z,2587.00
2023-03-11T10:28:12.018Z,2583.00
2023-03-11T10:29:02.961Z,2568.00
2023-03-11T10:29:53.923Z,2581.00
2023-03-11T10:30:44.875Z,2576.00
2023-03-11T10:31:35.861Z,2567.00
2023-03-11T10:32:26.772Z,2566.00
2023-03-11T10:33:17.706Z,2568.00
2023-03-11T10:34:08.630Z,2568.00
2023-03-11T10:34:59.583Z,2567.00
2023-03-11T10:35:50.547Z,2586.00
2023-03-11T10:36:41.471Z,2587.00
2023-03-11T10:37:47.923Z,2586.00
2023-03-11T10:38:24.353Z,2599.00
2023-03-11T10:39:14.084Z,2603.00
2023-03-11T10:40:05.047Z,2620.00
2023-03-11T10:40:55.970Z,2630.00
2023-03-11T10:41:46.929Z,2643.00
2023-03-11T10:42:37.850Z,2660.00
2023-03-11T10:43:28.783Z,2668.00
2023-03-11T10:44:19.715Z,2676.00
2023-03-11T10:45:10.656Z,2694.00
2023-03-11T10:46:01.681Z,2726.00
2023-03-11T10:46:52.620Z,2730.00
2023-03-11T10:47:43.560Z,2746.00
2023-03-11T10:48:34.460Z,2763.00
2023-03-11T10:49:25.444Z,2788.00